createdAt,value
2017-06-17T00:00:09.267Z,1017.65
2017-06-17T00:05:04.653Z,1017.71
2017-06-17T00:10:00.398Z,1017.70
2017-06-17T00:14:55.957Z,1017.60
2017-06-17T00:19:52.481Z,1017.85
2017-06-17T00:24:49.406Z,1017.85
2017-06-17T00:29:44.922Z,1017.86
2017-06-17T00:34:42.533Z,1017.80
2017-06-17T00:39:38.020Z,1017.94
2017-06-17T00:44:33.443Z,1017.93
2017-06-17T00:49:30.508Z,1017.81
2017-06-17T00:54:26.631Z,1017.95
2017-06-17T00:59:22.282Z,1017.90
2017-06-17T01:04:18.323Z,1017.93
2017-06-17T01:09:14.207Z,1017.96
2017-06-17T01:14:10.637Z,1017.98
2017-06-17T01:19:07.447Z,1017.97
2017-06-17T01:24:04.475Z,1017.81
2017-06-17T01:29:00.006Z,1017.96
2017-06-17T01:33:55.690Z,1018.00
2017-06-17T01:38:52.368Z,1017.93
2017-06-17T01:43:48.663Z,1018.07
2017-06-17T01:48:44.818Z,1018.00
2017-06-17T01:53:40.742Z,1018.03
2017-06-17T01:58:37.751Z,1017.96
2017-06-17T02:03:33.381Z,1017.90
2017-06-17T02:08:29.322Z,1017.92
2017-06-17T02:13:25.101Z,1017.95
2017-06-17T02:18:21.960Z,1017.88
2017-06-17T02:23:17.651Z,1017.68
2017-06-17T02:28:13.323Z,1017.69
2017-06-17T02:33:10.638Z,1017.68
2017-06-17T02:38:06.633Z,1017.66
2017-06-17T02:43:02.052Z,1017.60
2017-06-17T02:47:58.134Z,1017.56
2017-06-17T02:52:54.075Z,1017.59
2017-06-17T02:57:49.767Z,1017.66
2017-06-17T03:02:45.849Z,1017.65
2017-06-17T03:07:41.585Z,1017.70
2017-06-17T03:12:37.208Z,1017.81
2017-06-17T03:17:33.099Z,1017.86
2017-06-17T03:22:29.007Z,1017.79
2017-06-17T03:27:26.930Z,1017.81
2017-06-17T03:32:22.484Z,1017.78
2017-06-17T03:37:18.378Z,1017.80
2017-06-17T03:42:15.514Z,1017.69
2017-06-17T03:47:11.010Z,1017.66
2017-06-17T03:52:07.464Z,1017.65
2017-06-17T03:57:03.182Z,1017.67
2017-06-17T04:01:59.410Z,1017.82
2017-06-17T04:06:55.277Z,1017.67
2017-06-17T04:11:50.913Z,1017.69
2017-06-17T04:16:47.957Z,1017.81
2017-06-17T04:21:44.539Z,1017.91
2017-06-17T04:26:40.287Z,1017.88
2017-06-17T04:31:36.303Z,1017.80
2017-06-17T04:36:32.177Z,1017.86
2017-06-17T04:41:27.978Z,1017.94
2017-06-17T04:46:24.766Z,1017.98
2017-06-17T04:51:20.268Z,1017.94
2017-06-17T04:56:16.038Z,1018.04
2017-06-17T05:01:12.167Z,1017.94
2017-06-17T05:06:08.381Z,1018.06
2017-06-17T05:11:04.545Z,1018.13
2017-06-17T05:16:00.596Z,1018.17
2017-06-17T05:20:56.523Z,1018.01
2017-06-17T05:25:53.033Z,1017.98
2017-06-17T05:30:48.441Z,1018.06
2017-06-17T05:35:44.752Z,1018.04
2017-06-17T05:40:40.608Z,1018.18
2017-06-17T05:45:36.568Z,1018.15
2017-06-17T05:50:34.085Z,1018.14
2017-06-17T05:55:30.280Z,1018.22
2017-06-17T06:00:26.295Z,1018.09
2017-06-17T06:05:22.287Z,1018.24
2017-06-17T06:10:19.931Z,1018.26
2017-06-17T06:15:15.719Z,1018.22
2017-06-17T06:20:12.139Z,1018.27
2017-06-17T06:25:09.399Z,1018.27
2017-06-17T06:30:05.163Z,1018.21
2017-06-17T06:35:01.210Z,1018.21
2017-06-17T06:39:58.118Z,1018.23
2017-06-17T06:44:54.202Z,1018.18
2017-06-17T06:49:50.226Z,1018.25
2017-06-17T06:54:46.496Z,1018.25
2017-06-17T06:59:42.204Z,1018.30
2017-06-17T07:04:38.170Z,1018.29
2017-06-17T07:09:34.454Z,1018.27
2017-06-17T07:14:30.470Z,1018.41
2017-06-17T07:19:26.835Z,1018.38
2017-06-17T07:24:24.163Z,1018.44
2017-06-17T07:29:21.052Z,1018.45
2017-06-17T07:34:16.511Z,1018.46
2017-06-17T07:39:12.720Z,1018.48
2017-06-17T07:44:09.568Z,1018.51
2017-06-17T07:49:06.197Z,1018.54
2017-06-17T07:54:01.819Z,1018.63
2017-06-17T07:58:57.784Z,1018.67
2017-06-17T08:03:53.575Z,1018.62
2017-06-17T08:08:50.191Z,1018.58
2017-06-17T08:13:46.290Z,1018.64
2017-06-17T08:18:43.958Z,1018.60
2017-06-17T08:23:39.363Z,1018.57
2017-06-17T08:28:36.712Z,1018.52
2017-06-17T08:33:32.340Z,1018.57
2017-06-17T08:38:28.295Z,1018.59
2017-06-17T08:43:25.285Z,1018.65
2017-06-17T08:48:21.386Z,1018.61
2017-06-17T08:53:18.012Z,1018.61
2017-06-17T08:58:15.339Z,1018.58
2017-06-17T09:03:12.258Z,1018.63
2017-06-17T09:08:08.384Z,1018.63
2017-06-17T09:13:04.050Z,1018.70
2017-06-17T09:17:59.938Z,1018.73
2017-06-17T09:22:55.873Z,1018.74
2017-06-17T09:27:51.863Z,1018.71
2017-06-17T09:32:47.932Z,1018.70
2017-06-17T09:37:45.096Z,1018.65
2017-06-17T09:42:40.664Z,1018.65
2017-06-17T09:47:36.603Z,1018.74
2017-06-17T09:52:32.801Z,1018.75
2017-06-17T09:57:28.819Z,1018.78
2017-06-17T10:02:24.813Z,1018.77
2017-06-17T10:07:21.805Z,1018.81
2017-06-17T10:12:17.267Z,1018.80
2017-06-17T10:17:13.150Z,1018.85
2017-06-17T10:22:10.976Z,1018.83
2017-06-17T10:27:06.414Z,1018.87
2017-06-17T10:32:02.900Z,1018.73
2017-06-17T10:36:59.167Z,1018.74
2017-06-17T10:41:56.048Z,1018.77
2017-06-17T10:46:52.144Z,1018.71
2017-06-17T10:51:48.352Z,1018.82
2017-06-17T10:56:44.251Z,1018.91
2017-06-17T11:01:40.031Z,1018.95
2017-06-17T11:06:35.891Z,1018.86
2017-06-17T11:11:31.957Z,1018.87
2017-06-17T11:16:28.582Z,1018.83
2017-06-17T11:21:24.057Z,1018.81
2017-06-17T11:26:19.924Z,1018.76
2017-06-17T11:31:15.864Z,1018.74
2017-06-17T11:36:12.491Z,1018.71
2017-06-17T11:41:09.144Z,1018.72
2017-06-17T11:46:06.300Z,1018.71
2017-06-17T11:56:02.342Z,1018.69
2017-06-17T12:00:58.327Z,1018.75
2017-06-17T12:05:54.035Z,1018.77
2017-06-17T12:10:50.717Z,1018.77
2017-06-17T12:15:46.536Z,1018.78
2017-06-17T12:20:42.533Z,1018.80
2017-06-17T12:25:40.416Z,1018.64
2017-06-17T12:30:37.823Z,1018.57
2017-06-17T12:35:35.288Z,1018.39
2017-06-17T12:40:35.657Z,1018.30
2017-06-17T12:45:33.301Z,1018.29
2017-06-17T12:50:28.205Z,1018.29
2017-06-17T12:55:24.197Z,1018.36
2017-06-17T13:00:19.062Z,1018.30
2017-06-17T13:05:14.343Z,1018.48
2017-06-17T13:10:09.720Z,1018.40
2017-06-17T13:15:05.392Z,1018.36
2017-06-17T13:20:01.332Z,1018.45
2017-06-17T13:24:56.811Z,1018.40
2017-06-17T13:29:52.524Z,1018.44
2017-06-17T13:34:48.275Z,1018.50
2017-06-17T13:39:46.212Z,1018.59
2017-06-17T13:44:41.722Z,1018.49
2017-06-17T13:49:37.491Z,1018.58
2017-06-17T13:54:33.469Z,1018.49
2017-06-17T13:59:29.733Z,1018.55
2017-06-17T14:04:25.918Z,1018.60
2017-06-17T14:09:22.043Z,1018.53
2017-06-17T14:14:17.738Z,1018.60
2017-06-17T14:19:14.546Z,1018.51
2017-06-17T14:24:10.114Z,1018.54
2017-06-17T14:29:06.310Z,1018.48
2017-06-17T14:34:01.815Z,1018.38
2017-06-17T14:38:57.551Z,1018.40
2017-06-17T14:43:54.489Z,1018.47
2017-06-17T14:48:51.106Z,1018.39
2017-06-17T14:53:46.736Z,1018.48
2017-06-17T14:58:43.494Z,1018.38
2017-06-17T15:03:39.213Z,1018.39
2017-06-17T15:08:36.401Z,1018.44
2017-06-17T15:13:33.161Z,1018.37
2017-06-17T15:18:28.784Z,1018.40
2017-06-17T15:23:24.422Z,1018.29
2017-06-17T15:28:20.423Z,1018.28
2017-06-17T15:33:18.414Z,1018.22
2017-06-17T15:38:15.693Z,1018.23
2017-06-17T15:43:11.824Z,1018.14
2017-06-17T15:48:07.562Z,1018.30
2017-06-17T15:53:05.241Z,1018.12
2017-06-17T15:58:01.825Z,1018.08
2017-06-17T16:02:57.259Z,1018.14
2017-06-17T16:07:52.657Z,1018.13
2017-06-17T16:12:48.386Z,1018.15
2017-06-17T16:17:44.435Z,1018.21
2017-06-17T16:22:40.845Z,1018.20
2017-06-17T16:27:36.833Z,1018.13
2017-06-17T16:32:32.727Z,1018.16
2017-06-17T16:37:28.912Z,1018.19
2017-06-17T16:42:24.748Z,1018.16
2017-06-17T16:47:20.419Z,1018.20
2017-06-17T16:52:17.044Z,1018.28
2017-06-17T16:57:12.555Z,1018.28
2017-06-17T17:02:08.256Z,1018.26
2017-06-17T17:07:04.053Z,1018.11
2017-06-17T17:12:00.090Z,1018.24
2017-06-17T17:16:56.101Z,1018.24
2017-06-17T17:21:51.954Z,1018.12
2017-06-17T17:26:49.462Z,1018.08
2017-06-17T17:31:45.139Z,1018.20
2017-06-17T17:36:41.047Z,1018.16
2017-06-17T17:41:36.857Z,1018.10
2017-06-17T17:46:34.091Z,1018.06
2017-06-17T17:51:29.553Z,1018.08
2017-06-17T17:56:25.377Z,1018.16
2017-06-17T18:01:22.271Z,1018.23
2017-06-17T18:06:18.922Z,1018.13
2017-06-17T18:11:15.601Z,1018.25
2017-06-17T18:16:11.156Z,1018.25
2017-06-17T18:21:07.671Z,1018.28
2017-06-17T18:26:04.229Z,1018.29
2017-06-17T18:30:59.925Z,1018.32
2017-06-17T18:35:55.634Z,1018.26
2017-06-17T18:40:53.381Z,1018.28
2017-06-17T18:45:48.848Z,1018.24
2017-06-17T18:50:45.670Z,1018.31
2017-06-17T18:55:41.347Z,1018.29
2017-06-17T19:00:36.992Z,1018.43
2017-06-17T19:05:33.328Z,1018.34
2017-06-17T19:10:29.491Z,1018.38
2017-06-17T19:15:25.259Z,1018.47
2017-06-17T19:20:21.202Z,1018.53
2017-06-17T19:25:17.636Z,1018.65
2017-06-17T19:30:13.233Z,1018.69
2017-06-17T19:35:09.215Z,1018.77
2017-06-17T19:40:05.250Z,1018.80
2017-06-17T19:45:01.098Z,1018.82
2017-06-17T19:49:56.911Z,1018.76
2017-06-17T19:54:53.604Z,1018.83
2017-06-17T19:59:49.637Z,1018.87
2017-06-17T20:04:46.332Z,1018.95
2017-06-17T20:09:43.475Z,1018.91
2017-06-17T20:14:39.108Z,1018.94
2017-06-17T20:19:36.031Z,1019.07
2017-06-17T20:24:31.432Z,1018.99
2017-06-17T20:29:27.390Z,1019.00
2017-06-17T20:34:24.085Z,1019.12
2017-06-17T20:39:20.337Z,1019.14
2017-06-17T20:44:20.535Z,1019.18
2017-06-17T20:49:15.518Z,1019.21
2017-06-17T20:54:12.273Z,1019.32
2017-06-17T20:59:07.792Z,1019.23
2017-06-17T21:04:03.479Z,1019.36
2017-06-17T21:09:00.167Z,1019.36
2017-06-17T21:13:55.929Z,1019.37
2017-06-17T21:18:51.799Z,1019.36
2017-06-17T21:23:47.556Z,1019.37
2017-06-17T21:28:43.420Z,1019.47
2017-06-17T21:33:40.127Z,1019.37
2017-06-17T21:38:35.938Z,1019.39
2017-06-17T21:43:32.753Z,1019.38
2017-06-17T21:48:28.293Z,1019.38
2017-06-17T21:53:24.029Z,1019.39
2017-06-17T21:58:20.059Z,1019.33
2017-06-17T22:03:15.875Z,1019.41
2017-06-17T22:08:12.194Z,1019.34
2017-06-17T22:13:08.392Z,1019.33
2017-06-17T22:18:04.190Z,1019.36
2017-06-17T22:23:00.091Z,1019.30
2017-06-17T22:27:56.819Z,1019.23
2017-06-17T22:32:52.246Z,1019.21
2017-06-17T22:37:48.288Z,1019.21
2017-06-17T22:42:43.899Z,1019.31
2017-06-17T22:47:39.627Z,1019.35
2017-06-17T22:52:35.392Z,1019.36
2017-06-17T22:57:32.135Z,1019.51
2017-06-17T23:02:29.017Z,1019.57
2017-06-17T23:07:24.683Z,1019.52
2017-06-17T23:12:21.429Z,1019.40
2017-06-17T23:17:17.927Z,1019.39
2017-06-17T23:22:13.347Z,1019.41
2017-06-17T23:27:09.563Z,1019.43
2017-06-17T23:32:05.249Z,1019.41
2017-06-17T23:37:01.062Z,1019.48
2017-06-17T23:41:56.984Z,1019.44
2017-06-17T23:46:53.509Z,1019.47
2017-06-17T23:51:49.341Z,1019.49
2017-06-17T23:56:46.065Z,1019.51
